TimeCST,TemperatureF,Dew PointF,Humidity,Sea Level PressureIn,VisibilityMPH,Wind Direction,Wind SpeedMPH,Gust SpeedMPH,PrecipitationIn,Events,Conditions,WindDirDegrees,DateUTC
12:33 AM,-7.6,-14.8,71,30.33,10.0,Calm,Calm,-,N/A,,Clear,0,2013-03-02 06:33:00
12:53 AM,-7.6,-14.8,71,30.32,10.0,Calm,Calm,-,N/A,,Clear,0,2013-03-02 06:53:00
1:13 AM,-7.6,-14.8,71,30.33,10.0,Calm,Calm,-,N/A,,Clear,0,2013-03-02 07:13:00
1:33 AM,-7.6,-14.8,71,30.32,10.0,Calm,Calm,-,N/A,,Clear,0,2013-03-02 07:33:00
1:53 AM,-9.4,-14.8,77,30.32,10.0,Calm,Calm,-,N/A,,Clear,0,2013-03-02 07:53:00
2:13 AM,-11.2,-16.6,77,30.32,10.0,Calm,Calm,-,N/A,,Clear,0,2013-03-02 08:13:00
2:33 AM,-11.2,-16.6,77,30.33,10.0,Calm,Calm,-,N/A,,Clear,0,2013-03-02 08:33:00
2:53 AM,-11.2,-18.4,70,30.32,10.0,Calm,Calm,-,N/A,,Clear,0,2013-03-02 08:53:00
3:13 AM,-11.2,-18.4,70,30.31,10.0,Calm,Calm,-,N/A,,Clear,0,2013-03-02 09:13:00
3:33 AM,-13.0,-18.4,77,30.31,10.0,Calm,Calm,-,N/A,,Clear,0,2013-03-02 09:33:00
3:53 AM,-14.8,-20.2,77,30.31,10.0,Calm,Calm,-,N/A,,Clear,0,2013-03-02 09:53:00
4:13 AM,-14.8,-18.4,84,30.31,10.0,Calm,Calm,-,N/A,,Clear,0,2013-03-02 10:13:00
4:33 AM,-14.8,-20.2,77,30.31,10.0,Calm,Calm,-,N/A,,Clear,0,2013-03-02 10:33:00
4:53 AM,-14.8,-20.2,77,30.31,10.0,Calm,Calm,-,N/A,,Clear,0,2013-03-02 10:53:00
5:13 AM,-14.8,-20.2,77,30.31,10.0,Calm,Calm,-,N/A,,Clear,0,2013-03-02 11:13:00
5:33 AM,-14.8,-20.2,77,30.31,10.0,Calm,Calm,-,N/A,,Clear,0,2013-03-02 11:33:00
5:53 AM,-16.6,-22.0,76,30.31,10.0,Calm,Calm,-,N/A,,Clear,0,2013-03-02 11:53:00
6:13 AM,-16.6,-23.8,70,30.31,10.0,Calm,Calm,-,N/A,,Clear,0,2013-03-02 12:13:00
6:33 AM,-16.6,-23.8,70,30.31,10.0,Calm,Calm,-,N/A,,Clear,0,2013-03-02 12:33:00
6:53 AM,-16.6,-23.8,70,30.31,10.0,Calm,Calm,-,N/A,,Clear,0,2013-03-02 12:53:00
7:13 AM,-16.6,-23.8,70,30.31,10.0,Calm,Calm,-,N/A,,Clear,0,2013-03-02 13:13:00
7:33 AM,-14.8,-20.2,77,30.30,10.0,Calm,Calm,-,N/A,,Clear,0,2013-03-02 13:33:00
7:53 AM,-11.2,-18.4,70,30.30,10.0,Calm,Calm,-,N/A,,Clear,0,2013-03-02 13:53:00
8:13 AM,-9.4,-18.4,65,30.29,10.0,Calm,Calm,-,N/A,,Clear,0,2013-03-02 14:13:00
8:33 AM,-5.8,-14.8,65,30.29,10.0,Calm,Calm,-,N/A,,Clear,0,2013-03-02 14:33:00
9:13 AM,3.2,-11.2,51,30.27,10.0,Calm,Calm,-,N/A,,Clear,0,2013-03-02 15:13:00
9:33 AM,8.6,-7.6,48,30.27,10.0,Calm,Calm,-,N/A,,Clear,0,2013-03-02 15:33:00
9:53 AM,12.2,-2.2,53,30.27,10.0,Calm,Calm,-,N/A,,Clear,0,2013-03-02 15:53:00
10:13 AM,15.8,-0.4,49,30.26,10.0,Calm,Calm,-,N/A,,Clear,0,2013-03-02 16:13:00
10:33 AM,19.4,1.4,46,30.26,10.0,Calm,Calm,-,N/A,,Clear,0,2013-03-02 16:33:00
10:53 AM,21.2,1.4,42,30.25,10.0,Calm,Calm,-,N/A,,Clear,0,2013-03-02 16:53:00
11:13 AM,23.0,5.0,46,30.25,10.0,Calm,Calm,-,N/A,,Clear,0,2013-03-02 17:13:00
11:33 AM,24.8,6.8,46,30.25,10.0,South,3.5,-,N/A,,Clear,170,2013-03-02 17:33:00
11:53 AM,24.8,3.2,40,30.25,10.0,Calm,Calm,-,N/A,,Clear,0,2013-03-02 17:53:00
12:13 PM,26.6,3.2,37,30.24,10.0,Calm,Calm,-,N/A,,Clear,0,2013-03-02 18:13:00
12:33 PM,28.4,1.4,31,30.23,10.0,Calm,Calm,-,N/A,,Clear,0,2013-03-02 18:33:00
12:53 PM,26.6,1.4,34,30.22,10.0,South,4.6,-,N/A,,Clear,170,2013-03-02 18:53:00
1:13 PM,28.4,3.2,34,30.20,10.0,Calm,Calm,-,N/A,,Clear,0,2013-03-02 19:13:00
1:33 PM,26.6,3.2,37,30.21,10.0,SSW,3.5,-,N/A,,Scattered Clouds,210,2013-03-02 19:33:00
1:53 PM,28.4,3.2,34,30.21,10.0,SW,3.5,-,N/A,,Scattered Clouds,220,2013-03-02 19:53:00
2:13 PM,28.4,3.2,34,30.20,10.0,Calm,Calm,-,N/A,,Scattered Clouds,0,2013-03-02 20:13:00
2:33 PM,28.4,3.2,34,30.20,10.0,Calm,Calm,-,N/A,,Clear,0,2013-03-02 20:33:00
2:53 PM,28.4,5.0,37,30.19,10.0,Calm,Calm,-,N/A,,Clear,0,2013-03-02 20:53:00
3:13 PM,28.4,5.0,37,30.18,10.0,Calm,Calm,-,N/A,,Clear,0,2013-03-02 21:13:00
3:53 PM,28.4,5.0,37,30.17,10.0,Calm,Calm,-,N/A,,Clear,0,2013-03-02 21:53:00
4:13 PM,26.6,3.2,37,30.16,10.0,South,4.6,-,N/A,,Clear,190,2013-03-02 22:13:00
4:33 PM,26.6,3.2,37,30.16,10.0,South,4.6,-,N/A,,Clear,190,2013-03-02 22:33:00
4:53 PM,24.8,3.2,40,30.16,10.0,South,5.8,-,N/A,,Clear,180,2013-03-02 22:53:00
5:13 PM,26.6,3.2,37,30.16,10.0,SSE,3.5,-,N/A,,Scattered Clouds,160,2013-03-02 23:13:00
5:33 PM,26.6,1.4,34,30.16,10.0,SSE,4.6,-,N/A,,Mostly Cloudy,150,2013-03-02 23:33:00
5:53 PM,26.6,-0.4,31,30.15,10.0,SE,4.6,-,N/A,,Overcast,140,2013-03-02 23:53:00
6:13 PM,26.6,-0.4,31,30.16,10.0,Calm,Calm,-,N/A,,Overcast,0,2013-03-03 00:13:00
6:33 PM,26.6,1.4,34,30.15,10.0,Calm,Calm,-,N/A,,Overcast,0,2013-03-03 00:33:00
6:53 PM,26.6,1.4,34,30.16,10.0,Calm,Calm,-,N/A,,Overcast,0,2013-03-03 00:53:00
7:13 PM,24.8,1.4,36,30.16,10.0,Calm,Calm,-,N/A,,Overcast,0,2013-03-03 01:13:00
7:33 PM,24.8,1.4,36,30.15,10.0,Calm,Calm,-,N/A,,Overcast,0,2013-03-03 01:33:00
7:53 PM,24.8,3.2,40,30.14,10.0,Calm,Calm,-,N/A,,Overcast,0,2013-03-03 01:53:00
8:13 PM,24.8,3.2,40,30.14,10.0,ESE,3.5,-,N/A,,Overcast,110,2013-03-03 02:13:00
8:33 PM,24.8,3.2,40,30.13,10.0,Calm,Calm,-,N/A,,Overcast,0,2013-03-03 02:33:00
8:53 PM,23.0,3.2,43,30.13,10.0,Calm,Calm,-,N/A,,Overcast,0,2013-03-03 02:53:00
9:13 PM,23.0,1.4,39,30.13,10.0,Calm,Calm,-,N/A,,Overcast,0,2013-03-03 03:13:00
9:33 PM,23.0,3.2,43,30.13,10.0,Calm,Calm,-,N/A,,Overcast,0,2013-03-03 03:33:00
9:53 PM,24.8,1.4,36,30.13,10.0,Calm,Calm,-,N/A,,Overcast,0,2013-03-03 03:53:00
10:13 PM,23.0,1.4,39,30.12,10.0,Calm,Calm,-,N/A,,Overcast,0,2013-03-03 04:13:00
10:33 PM,23.0,1.4,39,30.11,10.0,SE,3.5,-,N/A,,Overcast,140,2013-03-03 04:33:00
10:53 PM,23.0,3.2,43,30.12,10.0,Calm,Calm,-,N/A,,Overcast,0,2013-03-03 04:53:00
11:13 PM,24.8,1.4,36,30.11,10.0,SSE,3.5,-,N/A,,Overcast,150,2013-03-03 05:13:00
11:33 PM,24.8,1.4,36,30.10,10.0,SSE,3.5,-,N/A,,Overcast,160,2013-03-03 05:33:00
11:53 PM,24.8,1.4,36,30.10,10.0,Calm,Calm,-,N/A,,Overcast,0,2013-03-03 05:53:00